Time;durP1;ratioP1;P1;durP2;ratioP2;P2;SDS_P1;SDS_P2;PMS_P1;PMS_P2;Temp;Humidity;BMP_temperature;BMP_pressure;BME280_temperature;BME280_humidity;BME280_pressure;Samples;Min_cycle;Max_cycle;Signal;HPM_P1;HPM_P2
2021/11/22 00:02:07;;;;;;;5.93;1.48;;;6.60;99.90;;;;;;5034068;28;20432;-82
2021/11/22 00:04:33;;;;;;;6.55;1.23;;;6.60;99.90;;;;;;5001269;28;20042;-82
2021/11/22 00:06:59;;;;;;;5.93;1.25;;;7.30;99.90;;;;;;5017316;28;20038;-81
2021/11/22 00:09:25;;;;;;;4.72;1.00;;;6.50;99.90;;;;;;5000967;28;20048;-81
2021/11/22 00:11:51;;;;;;;3.90;1.00;;;6.40;99.90;;;;;;5001033;28;20175;-81
2021/11/22 00:14:18;;;;;;;6.88;1.00;;;6.40;99.90;;;;;;5001175;28;20061;-80
2021/11/22 00:16:44;;;;;;;7.35;1.50;;;7.10;99.90;;;;;;5000948;28;20055;-80
2021/11/22 00:19:10;;;;;;;8.38;1.38;;;6.40;99.90;;;;;;5014012;28;20041;-80
2021/11/22 00:21:36;;;;;;;2.83;0.90;;;6.40;99.90;;;;;;5007445;28;20053;-80
2021/11/22 00:24:02;;;;;;;4.97;1.00;;;6.40;99.90;;;;;;5000782;28;20053;-80
2021/11/22 00:26:27;;;;;;;5.03;1.02;;;6.40;99.90;;;;;;5016886;28;20047;-80
2021/11/22 00:28:53;;;;;;;6.15;1.15;;;6.40;99.90;;;;;;5017080;28;20388;-81
2021/11/22 00:31:19;;;;;;;5.18;1.55;;;6.40;99.90;;;;;;5000834;28;20509;-80
2021/11/22 00:33:48;;;;;;;6.88;1.13;;;7.00;99.90;;;;;;4985362;28;20416;-80
2021/11/22 00:36:14;;;;;;;4.70;1.45;;;6.50;99.90;;;;;;5033589;28;20169;-81
2021/11/22 00:38:40;;;;;;;4.75;1.10;;;6.40;99.90;;;;;;5000913;28;20540;-81
2021/11/22 00:41:07;;;;;;;4.47;1.00;;;6.30;99.90;;;;;;5016315;28;20120;-81
2021/11/22 00:43:33;;;;;;;8.88;1.33;;;6.30;99.90;;;;;;5033228;28;20115;-80
2021/11/22 00:45:59;;;;;;;4.57;1.25;;;6.30;99.90;;;;;;5000575;28;20443;-79
2021/11/22 00:48:25;;;;;;;4.72;1.10;;;6.40;99.90;;;;;;5033535;28;20042;-79
2021/11/22 00:50:53;;;;;;;5.10;1.10;;;6.30;99.90;;;;;;5000079;28;20041;-79
2021/11/22 00:53:19;;;;;;;4.00;1.10;;;6.30;99.90;;;;;;5032912;28;20045;-79
2021/11/22 00:55:45;;;;;;;3.03;0.80;;;6.30;99.90;;;;;;5016443;28;20113;-79
2021/11/22 00:58:10;;;;;;;8.88;1.30;;;6.30;99.90;;;;;;4999969;28;20046;-79
2021/11/22 01:00:37;;;;;;;5.82;1.17;;;6.20;99.90;;;;;;5000232;28;20038;-79
2021/11/22 01:03:04;;;;;;;2.75;0.98;;;6.20;99.90;;;;;;4999141;28;20121;-79
2021/11/22 01:05:30;;;;;;;5.43;1.20;;;6.30;99.90;;;;;;5016515;28;20038;-79
2021/11/22 01:07:55;;;;;;;4.00;1.10;;;6.20;99.90;;;;;;5032864;28;20060;-79
2021/11/22 01:10:22;;;;;;;7.65;1.23;;;6.20;99.90;;;;;;5034059;28;20117;-79
2021/11/22 01:12:49;;;;;;;3.85;0.90;;;6.20;99.90;;;;;;5016462;28;20195;-79
2021/11/22 01:15:19;;;;;;;9.85;1.42;;;6.40;99.90;;;;;;5032526;28;20079;-79
2021/11/22 01:17:49;;;;;;;4.00;0.90;;;6.20;99.90;;;;;;5016133;28;20069;-79
2021/11/22 01:20:18;;;;;;;4.70;0.90;;;6.20;99.90;;;;;;5016759;28;20119;-79
2021/11/22 01:22:44;;;;;;;5.10;1.17;;;6.30;99.90;;;;;;5015871;28;20167;-79
2021/11/22 01:25:14;;;;;;;5.13;1.05;;;6.10;99.90;;;;;;4999587;28;20482;-79
2021/11/22 01:27:40;;;;;;;10.98;1.35;;;6.10;99.90;;;;;;5015741;28;20049;-79
2021/11/22 01:30:10;;;;;;;8.63;1.23;;;6.10;99.90;;;;;;4999823;28;20067;-79
2021/11/22 01:32:37;;;;;;;8.10;1.20;;;6.10;99.90;;;;;;5032171;28;20041;-79
2021/11/22 01:35:03;;;;;;;5.68;0.98;;;6.10;99.90;;;;;;5032617;28;20034;-79
2021/11/22 01:37:32;;;;;;;5.30;0.85;;;6.10;99.90;;;;;;4999610;28;20099;-79
2021/11/22 01:39:58;;;;;;;5.97;1.40;;;6.10;99.90;;;;;;5015579;28;20037;-79
2021/11/22 01:42:23;;;;;;;3.70;0.95;;;6.10;99.90;;;;;;4999393;28;20045;-79
2021/11/22 01:44:49;;;;;;;6.43;1.45;;;6.30;99.90;;;;;;5015813;28;20048;-79
2021/11/22 01:47:15;;;;;;;4.55;1.00;;;6.10;99.90;;;;;;5033303;28;20486;-79
2021/11/22 01:49:41;;;;;;;3.50;1.13;;;6.10;99.90;;;;;;5032094;28;20041;-79
2021/11/22 01:52:07;;;;;;;7.45;1.20;;;6.10;99.90;;;;;;5031976;28;20098;-79
2021/11/22 01:54:33;;;;;;;3.30;0.93;;;6.10;99.90;;;;;;5015404;28;20120;-79
2021/11/22 01:56:59;;;;;;;6.38;1.00;;;6.10;99.90;;;;;;4999432;28;20049;-79
2021/11/22 01:59:25;;;;;;;3.33;0.80;;;6.10;99.90;;;;;;4999244;28;20102;-80
2021/11/22 02:01:51;;;;;;;8.02;1.40;;;6.10;99.90;;;;;;4999217;28;20041;-80
2021/11/22 02:04:17;;;;;;;5.68;1.15;;;6.10;99.90;;;;;;5015659;28;20405;-80
2021/11/22 02:06:43;;;;;;;6.70;0.82;;;6.10;99.90;;;;;;5012009;28;20041;-80
2021/11/22 02:09:10;;;;;;;4.90;1.10;;;6.70;99.90;;;;;;5012767;28;20033;-80
2021/11/22 02:11:36;;;;;;;9.32;1.00;;;6.10;99.90;;;;;;4999192;28;20116;-80
2021/11/22 02:14:03;;;;;;;4.97;0.88;;;6.10;99.90;;;;;;5030499;28;20049;-80
2021/11/22 02:16:29;;;;;;;9.95;1.13;;;6.10;99.90;;;;;;4992781;28;20050;-80
2021/11/22 02:18:55;;;;;;;8.88;1.25;;;6.10;99.90;;;;;;4998414;28;20048;-80
2021/11/22 02:21:23;;;;;;;9.38;1.23;;;6.10;99.90;;;;;;4982261;28;20049;-80
2021/11/22 02:23:49;;;;;;;3.33;0.95;;;6.10;99.90;;;;;;4998230;28;20053;-80
2021/11/22 02:26:15;;;;;;;6.35;1.40;;;6.10;99.90;;;;;;5015776;28;20124;-80
2021/11/22 02:28:41;;;;;;;5.10;0.90;;;6.10;99.90;;;;;;5032700;28;20133;-80
2021/11/22 02:31:07;;;;;;;9.13;1.42;;;6.10;99.90;;;;;;4982098;28;20041;-81
2021/11/22 02:33:36;;;;;;;6.13;1.13;;;6.40;99.90;;;;;;5015268;28;20045;-81
2021/11/22 02:36:03;;;;;;;11.18;1.27;;;6.30;99.90;;;;;;4998532;28;20068;-81
2021/11/22 02:38:30;;;;;;;5.45;1.23;;;6.00;99.90;;;;;;5014695;28;20095;-81
2021/11/22 02:40:58;;;;;;;4.57;0.95;;;6.00;99.90;;;;;;4998295;28;20116;-81
2021/11/22 02:43:25;;;;;;;10.07;1.15;;;6.00;99.90;;;;;;5014572;28;20080;-81
2021/11/22 02:45:51;;;;;;;7.50;1.20;;;6.00;99.90;;;;;;5015046;28;20455;-81
2021/11/22 02:48:16;;;;;;;4.65;0.90;;;6.00;99.90;;;;;;5014658;28;20057;-81
2021/11/22 02:50:42;;;;;;;5.05;1.00;;;6.00;99.90;;;;;;4982133;28;20041;-81
2021/11/22 02:53:08;;;;;;;3.78;0.90;;;6.00;99.90;;;;;;5012316;28;20049;-81
2021/11/22 02:55:34;;;;;;;8.70;1.20;;;6.00;99.90;;;;;;5014974;28;20077;-81
2021/11/22 02:58:00;;;;;;;8.10;0.90;;;6.20;99.90;;;;;;5031543;28;20042;-81
2021/11/22 03:00:29;;;;;;;2.38;0.80;;;6.00;99.90;;;;;;5016161;28;20052;-81
2021/11/22 03:02:55;;;;;;;6.68;1.15;;;6.00;99.90;;;;;;5014766;28;20056;-81
2021/11/22 03:05:22;;;;;;;5.90;1.10;;;6.00;99.90;;;;;;5014532;28;20497;-81
2021/11/22 03:07:50;;;;;;;4.57;0.70;;;6.30;99.90;;;;;;5030960;28;20060;-81
2021/11/22 03:10:17;;;;;;;14.05;1.65;;;6.10;99.90;;;;;;5014729;28;20046;-81
2021/11/22 03:12:43;;;;;;;6.07;1.00;;;6.00;99.90;;;;;;4998294;28;20124;-80
2021/11/22 03:15:12;;;;;;;5.15;0.70;;;6.00;99.90;;;;;;4966328;28;20457;-80
2021/11/22 03:17:39;;;;;;;3.25;0.75;;;6.00;99.90;;;;;;5014302;28;20053;-80
2021/11/22 03:20:06;;;;;;;6.78;1.15;;;6.00;99.90;;;;;;5014925;28;20045;-80
2021/11/22 03:22:32;;;;;;;8.05;1.20;;;6.00;99.90;;;;;;5014446;28;20044;-81
2021/11/22 03:24:58;;;;;;;7.53;1.20;;;6.00;99.90;;;;;;5032052;28;20049;-81
2021/11/22 03:27:24;;;;;;;3.63;0.93;;;6.00;99.90;;;;;;5018224;28;20045;-81
2021/11/22 03:29:50;;;;;;;7.55;1.05;;;6.00;99.90;;;;;;5018189;28;20095;-81
2021/11/22 03:32:15;;;;;;;7.03;1.10;;;6.00;99.90;;;;;;5001784;28;20045;-81
2021/11/22 03:34:41;;;;;;;6.32;0.90;;;5.90;99.90;;;;;;4998358;28;20475;-81
2021/11/22 03:37:08;;;;;;;4.35;0.80;;;5.90;99.90;;;;;;5010083;28;20053;-81
2021/11/22 03:39:35;;;;;;;5.15;0.88;;;5.90;99.90;;;;;;4998669;28;20096;-81
2021/11/22 03:42:06;;;;;;;5.70;1.20;;;5.80;99.90;;;;;;5008910;28;20049;-81
2021/11/22 03:44:33;;;;;;;6.30;1.20;;;5.70;99.90;;;;;;5017827;28;20073;-81
2021/11/22 03:47:00;;;;;;;3.00;1.02;;;5.70;99.90;;;;;;5018012;28;20041;-81
2021/11/22 03:49:26;;;;;;;4.63;0.90;;;5.70;99.90;;;;;;5015879;28;20042;-81
2021/11/22 03:51:52;;;;;;;3.22;0.68;;;5.60;99.90;;;;;;5017638;28;20045;-81
2021/11/22 03:54:19;;;;;;;3.72;1.00;;;5.60;99.90;;;;;;5017845;28;20402;-81
2021/11/22 03:56:45;;;;;;;5.90;0.77;;;5.50;99.90;;;;;;5001328;28;20045;-81
2021/11/22 03:59:12;;;;;;;3.08;0.68;;;5.50;99.90;;;;;;5017643;28;20042;-81
2021/11/22 04:01:39;;;;;;;4.07;0.80;;;5.40;99.90;;;;;;5001243;28;20034;-81
2021/11/22 04:04:05;;;;;;;5.47;0.88;;;5.40;99.90;;;;;;5017936;28;20103;-81
2021/11/22 04:06:32;;;;;;;4.70;0.80;;;5.30;99.90;;;;;;5001118;28;20168;-81
2021/11/22 04:08:57;;;;;;;3.63;1.08;;;5.40;99.90;;;;;;5001416;28;20033;-81
2021/11/22 04:11:23;;;;;;;5.20;1.20;;;5.20;99.90;;;;;;5017149;28;20037;-81
2021/11/22 04:13:50;;;;;;;2.42;0.85;;;5.20;99.90;;;;;;5017654;28;20087;-81
2021/11/22 04:16:15;;;;;;;11.20;1.42;;;5.10;99.90;;;;;;5001145;28;20053;-81
2021/11/22 04:18:44;;;;;;;3.70;0.90;;;5.10;99.90;;;;;;5034330;28;20037;-81
2021/11/22 04:21:12;;;;;;;6.15;0.95;;;5.10;99.90;;;;;;5017454;28;20045;-81
2021/11/22 04:23:38;;;;;;;5.60;1.00;;;5.10;99.90;;;;;;5016825;28;20564;-81
2021/11/22 04:26:06;;;;;;;8.75;0.90;;;6.00;99.90;;;;;;5017114;28;20073;-81
2021/11/22 04:28:31;;;;;;;4.07;0.90;;;4.90;99.90;;;;;;5000854;28;20091;-81
2021/11/22 04:30:57;;;;;;;3.25;0.93;;;4.90;99.90;;;;;;5033500;28;20041;-81
2021/11/22 04:33:23;;;;;;;7.85;1.00;;;4.90;99.90;;;;;;5000851;28;20045;-81
2021/11/22 04:35:48;;;;;;;5.43;1.10;;;4.90;99.90;;;;;;5033698;28;20148;-81
2021/11/22 04:38:14;;;;;;;7.50;0.90;;;4.90;99.90;;;;;;4976343;28;20596;-81
2021/11/22 04:40:40;;;;;;;3.97;0.90;;;4.90;99.90;;;;;;5016743;28;20124;-81
2021/11/22 04:43:05;;;;;;;2.85;0.90;;;4.80;99.90;;;;;;5016774;28;20041;-81
2021/11/22 04:45:31;;;;;;;5.38;0.82;;;4.80;99.90;;;;;;4997577;28;20117;-81
2021/11/22 04:48:03;;;;;;;5.35;1.10;;;4.80;99.90;;;;;;5013648;28;20099;-81
2021/11/22 04:50:29;;;;;;;7.95;1.20;;;4.80;99.90;;;;;;5016777;28;20112;-81
2021/11/22 04:52:56;;;;;;;6.13;1.17;;;4.80;99.90;;;;;;4983259;28;20493;-81
2021/11/22 04:55:27;;;;;;;2.35;0.70;;;4.80;99.90;;;;;;5016407;28;20037;-81
2021/11/22 04:57:53;;;;;;;5.03;0.98;;;4.70;99.90;;;;;;5016489;28;20050;-81
2021/11/22 05:00:22;;;;;;;7.68;0.90;;;4.70;99.90;;;;;;5013572;28;20116;-81
2021/11/22 05:02:50;;;;;;;2.58;0.68;;;4.70;99.90;;;;;;5010392;28;20045;-81
2021/11/22 05:05:17;;;;;;;5.05;1.20;;;4.70;99.90;;;;;;5016661;28;20435;-81
2021/11/22 05:07:44;;;;;;;5.75;1.10;;;4.70;99.90;;;;;;5016252;28;20401;-81
2021/11/22 05:10:10;;;;;;;3.65;0.93;;;4.70;99.90;;;;;;5016404;28;20433;-81
2021/11/22 05:12:37;;;;;;;4.75;1.10;;;4.60;99.90;;;;;;5016648;28;20367;-81
2021/11/22 05:15:04;;;;;;;2.28;1.10;;;4.60;99.90;;;;;;5032702;28;20440;-81
2021/11/22 05:17:30;;;;;;;7.00;1.20;;;4.70;99.90;;;;;;4999970;28;20042;-81
2021/11/22 05:19:55;;;;;;;7.10;1.40;;;4.70;99.90;;;;;;5000165;28;20528;-81
2021/11/22 05:22:21;;;;;;;7.18;1.05;;;4.70;99.90;;;;;;4982831;28;20057;-81
2021/11/22 05:24:49;;;;;;;6.15;1.10;;;5.10;99.90;;;;;;5015826;28;20062;-81
2021/11/22 05:27:24;;;;;;;7.13;1.23;;;4.60;99.90;;;;;;4999373;28;20137;-81
2021/11/22 05:29:50;;;;;;;5.78;1.10;;;5.30;99.90;;;;;;5016028;28;20120;-81
2021/11/22 05:32:17;;;;;;;5.63;1.02;;;4.70;99.90;;;;;;5016476;28;20124;-81
2021/11/22 05:34:45;;;;;;;6.78;1.00;;;4.60;99.90;;;;;;5002595;28;20386;-81
2021/11/22 05:37:11;;;;;;;5.13;1.48;;;4.50;99.90;;;;;;4999871;28;20084;-81
2021/11/22 05:39:37;;;;;;;5.22;1.13;;;4.60;99.90;;;;;;5015698;28;20083;-81
2021/11/22 05:42:04;;;;;;;3.40;1.20;;;4.50;99.90;;;;;;5016069;28;20041;-81
2021/11/22 05:44:32;;;;;;;4.20;1.10;;;4.40;99.90;;;;;;5015789;28;20045;-81
2021/11/22 05:46:58;;;;;;;4.97;1.20;;;4.40;99.90;;;;;;5015583;28;20050;-81
2021/11/22 05:49:24;;;;;;;4.40;1.20;;;4.40;99.90;;;;;;4998810;28;20048;-81
2021/11/22 05:51:50;;;;;;;5.55;1.10;;;5.30;99.90;;;;;;5032231;28;20084;-81
2021/11/22 05:54:21;;;;;;;6.38;1.30;;;4.40;99.90;;;;;;4999691;28;20451;-80
2021/11/22 05:56:47;;;;;;;10.60;1.30;;;4.30;99.90;;;;;;4983107;28;20037;-80
2021/11/22 05:59:13;;;;;;;5.53;1.17;;;4.30;99.90;;;;;;5031787;28;20045;-80
2021/11/22 06:01:39;;;;;;;5.07;1.10;;;4.50;99.90;;;;;;4999060;28;20045;-81
2021/11/22 06:04:04;;;;;;;5.95;1.40;;;4.30;99.90;;;;;;4982829;28;20087;-81
2021/11/22 06:06:30;;;;;;;5.07;1.10;;;4.30;99.90;;;;;;4997384;28;20046;-80
2021/11/22 06:08:56;;;;;;;2.83;0.80;;;4.20;99.90;;;;;;4999143;28;20036;-80
2021/11/22 06:11:21;;;;;;;6.80;1.20;;;4.20;99.90;;;;;;5015277;28;20044;-80
2021/11/22 06:13:47;;;;;;;6.70;1.25;;;4.30;99.90;;;;;;4999064;28;20034;-80
2021/11/22 06:16:13;;;;;;;4.50;1.40;;;4.20;99.90;;;;;;5015404;28;20482;-79
2021/11/22 06:18:42;;;;;;;3.60;1.20;;;4.20;99.90;;;;;;4998946;28;20041;-79
2021/11/22 06:21:08;;;;;;;8.75;1.27;;;4.20;99.90;;;;;;5015368;28;20400;-79
2021/11/22 06:23:34;;;;;;;7.60;1.13;;;4.30;99.90;;;;;;5031203;28;20132;-79
2021/11/22 06:26:00;;;;;;;4.90;1.40;;;4.30;99.90;;;;;;4998402;28;20121;-79
2021/11/22 06:28:25;;;;;;;5.18;1.67;;;4.20;99.90;;;;;;4998974;28;20397;-80
2021/11/22 06:30:51;;;;;;;7.57;1.60;;;4.20;99.90;;;;;;4997319;28;20049;-80
2021/11/22 06:33:17;;;;;;;3.38;1.38;;;4.10;99.90;;;;;;5032740;28;20037;-80
2021/11/22 06:35:45;;;;;;;4.53;1.30;;;4.80;99.90;;;;;;5031443;28;20041;-80
2021/11/22 06:38:14;;;;;;;5.60;1.35;;;4.10;99.90;;;;;;5014835;28;20033;-80
2021/11/22 06:40:41;;;;;;;7.70;1.45;;;5.00;99.90;;;;;;5014846;28;20072;-80
2021/11/22 06:43:06;;;;;;;6.30;1.77;;;4.80;99.90;;;;;;5031231;28;20133;-80
2021/11/22 06:45:32;;;;;;;7.65;1.63;;;3.50;99.90;;;;;;4997993;28;20053;-80
2021/11/22 06:47:59;;;;;;;8.98;1.80;;;4.10;99.90;;;;;;5014195;28;20076;-80
2021/11/22 06:50:25;;;;;;;6.40;1.70;;;4.20;99.90;;;;;;4998388;28;20114;-80
2021/11/22 06:52:51;;;;;;;6.25;1.80;;;4.10;99.90;;;;;;5030814;28;20049;-80
2021/11/22 06:55:18;;;;;;;6.72;1.75;;;4.10;99.90;;;;;;4994920;28;20046;-80
2021/11/22 06:57:44;;;;;;;7.55;1.95;;;4.10;99.90;;;;;;5007949;28;20549;-80
2021/11/22 07:00:13;;;;;;;8.15;1.92;;;4.80;99.90;;;;;;4998574;28;20120;-80
2021/11/22 07:02:38;;;;;;;5.05;2.00;;;4.10;99.90;;;;;;5018545;28;20045;-80
2021/11/22 07:05:05;;;;;;;8.38;2.00;;;4.10;99.90;;;;;;5017911;28;20151;-80
2021/11/22 07:07:32;;;;;;;7.13;2.40;;;4.10;99.90;;;;;;5018009;28;20041;-80
2021/11/22 07:09:58;;;;;;;9.52;2.35;;;4.20;99.90;;;;;;5001811;28;20048;-80
2021/11/22 07:12:23;;;;;;;5.70;2.30;;;4.00;99.90;;;;;;5018290;28;20401;-79
2021/11/22 07:14:49;;;;;;;7.45;2.65;;;4.00;99.90;;;;;;5001739;28;20473;-79
2021/11/22 07:17:16;;;;;;;5.55;2.92;;;4.00;99.90;;;;;;5021234;28;20044;-80
2021/11/22 07:19:43;;;;;;;7.47;3.10;;;4.00;99.90;;;;;;5018320;28;20089;-80
2021/11/22 07:22:10;;;;;;;8.82;2.78;;;4.00;99.90;;;;;;5001379;28;20520;-81
2021/11/22 07:24:41;;;;;;;10.50;3.08;;;4.10;99.90;;;;;;5017867;28;20065;-81
2021/11/22 07:27:08;;;;;;;8.75;2.50;;;4.00;99.90;;;;;;5001749;28;20377;-81
2021/11/22 07:29:34;;;;;;;7.78;2.97;;;3.90;99.90;;;;;;5001608;28;20103;-81
2021/11/22 07:32:00;;;;;;;9.20;3.55;;;4.00;99.90;;;;;;5034711;28;20045;-81
2021/11/22 07:34:26;;;;;;;6.82;2.78;;;4.10;99.90;;;;;;4984866;28;20478;-81
2021/11/22 07:36:52;;;;;;;8.68;3.03;;;4.00;99.90;;;;;;5001628;28;20041;-81
2021/11/22 07:39:17;;;;;;;6.18;2.88;;;4.00;99.90;;;;;;4983735;28;20486;-80
2021/11/22 07:41:44;;;;;;;7.35;3.30;;;4.00;99.90;;;;;;4961474;28;20076;-80
2021/11/22 07:44:10;;;;;;;8.50;2.85;;;4.00;99.90;;;;;;5012046;28;20490;-80
2021/11/22 07:46:36;;;;;;;6.88;2.80;;;4.90;99.90;;;;;;5017828;28;20049;-80
2021/11/22 07:49:02;;;;;;;7.45;3.08;;;4.10;99.90;;;;;;5026247;28;20064;-80
2021/11/22 07:51:28;;;;;;;6.40;2.60;;;4.10;99.90;;;;;;5017640;28;20490;-80
2021/11/22 07:53:54;;;;;;;9.35;2.83;;;4.10;99.90;;;;;;5001626;28;20490;-80
2021/11/22 07:56:20;;;;;;;6.38;2.60;;;4.10;99.90;;;;;;5017448;28;20080;-80
2021/11/22 07:58:46;;;;;;;6.85;2.47;;;4.10;99.90;;;;;;5017791;28;20052;-80
2021/11/22 08:01:12;;;;;;;9.52;3.05;;;4.10;99.90;;;;;;5033728;28;20072;-80
2021/11/22 08:03:40;;;;;;;8.80;2.83;;;4.10;99.90;;;;;;5001282;28;20103;-80
2021/11/22 08:06:06;;;;;;;7.57;2.70;;;4.10;99.90;;;;;;5017366;28;20081;-80
2021/11/22 08:08:36;;;;;;;9.55;3.10;;;4.20;99.90;;;;;;5033879;28;20052;-80
2021/11/22 08:13:41;;;;;;;10.77;2.70;;;4.70;99.90;;;;;;5015878;28;20120;-80
2021/11/22 08:16:12;;;;;;;9.05;2.88;;;4.20;99.90;;;;;;5000823;28;20493;-80
2021/11/22 08:18:38;;;;;;;5.32;2.88;;;4.30;99.90;;;;;;5017200;28;20029;-81
2021/11/22 08:21:05;;;;;;;5.07;2.72;;;4.30;99.90;;;;;;4981006;28;20584;-81
2021/11/22 08:23:31;;;;;;;6.15;3.10;;;4.80;99.90;;;;;;4993153;28;20050;-81
2021/11/22 08:25:57;;;;;;;6.25;2.60;;;4.30;99.90;;;;;;4998369;28;20481;-81
2021/11/22 08:28:23;;;;;;;10.02;3.35;;;4.40;99.90;;;;;;5016629;28;20041;-80
2021/11/22 08:30:49;;;;;;;5.72;3.10;;;4.40;99.90;;;;;;5016659;28;20049;-80
2021/11/22 08:33:17;;;;;;;11.63;3.30;;;5.00;99.90;;;;;;5033200;28;20245;-80
2021/11/22 08:35:44;;;;;;;10.82;3.70;;;5.10;99.90;;;;;;5000001;28;20165;-80
2021/11/22 08:38:13;;;;;;;7.40;3.25;;;4.40;99.90;;;;;;5000549;28;20044;-80
2021/11/22 08:40:42;;;;;;;7.57;3.33;;;4.40;99.90;;;;;;5000419;28;20041;-80
2021/11/22 08:43:16;;;;;;;6.93;3.47;;;4.40;99.90;;;;;;5000360;28;20120;-80
2021/11/22 08:45:47;;;;;;;5.82;3.22;;;4.40;99.90;;;;;;5000141;28;20049;-81
2021/11/22 08:48:14;;;;;;;7.15;3.17;;;4.50;99.90;;;;;;5016365;28;20048;-81
2021/11/22 08:50:40;;;;;;;8.40;3.10;;;5.20;99.90;;;;;;5000277;28;20054;-81
2021/11/22 08:53:06;;;;;;;7.75;3.53;;;5.10;99.90;;;;;;4999696;28;20486;-81
2021/11/22 08:55:32;;;;;;;8.90;3.42;;;4.50;99.90;;;;;;4996779;28;20124;-81
2021/11/22 08:57:58;;;;;;;6.88;3.20;;;4.80;99.90;;;;;;4995577;28;20125;-81
2021/11/22 09:00:28;;;;;;;7.70;3.42;;;5.50;99.90;;;;;;5032796;28;20049;-81
2021/11/22 09:02:54;;;;;;;7.68;3.28;;;4.60;99.90;;;;;;5016529;28;20377;-81
2021/11/22 09:05:20;;;;;;;7.65;3.75;;;5.00;99.90;;;;;;5016295;28;20395;-81
2021/11/22 09:07:46;;;;;;;7.55;3.60;;;4.70;99.90;;;;;;5016133;28;20075;-81
2021/11/22 09:10:12;;;;;;;15.38;4.43;;;4.70;99.90;;;;;;5033802;28;20029;-81
2021/11/22 09:12:38;;;;;;;8.80;4.10;;;4.70;99.90;;;;;;4999942;28;20049;-81
2021/11/22 09:15:04;;;;;;;8.93;4.00;;;4.80;99.90;;;;;;4998703;28;20550;-81
2021/11/22 09:17:30;;;;;;;14.30;4.80;;;4.80;99.90;;;;;;4999788;28;20075;-81
2021/11/22 09:19:56;;;;;;;11.35;4.22;;;5.80;99.90;;;;;;5000041;28;20089;-81
2021/11/22 09:22:21;;;;;;;9.85;4.20;;;5.70;99.90;;;;;;5031923;28;20045;-81
2021/11/22 09:24:47;;;;;;;8.85;4.20;;;4.90;99.90;;;;;;4998892;28;20061;-81
2021/11/22 09:27:13;;;;;;;10.75;4.00;;;5.00;99.90;;;;;;5015688;28;20395;-81
2021/11/22 09:29:39;;;;;;;10.18;4.22;;;5.30;99.90;;;;;;5016243;28;20037;-81
2021/11/22 09:32:06;;;;;;;11.30;4.15;;;4.90;99.90;;;;;;4979945;28;20034;-81
2021/11/22 09:34:32;;;;;;;5.63;3.63;;;5.10;99.90;;;;;;4998085;28;20116;-81
2021/11/22 09:36:58;;;;;;;9.52;4.13;;;5.60;99.90;;;;;;4999503;28;20125;-81
2021/11/22 09:39:24;;;;;;;13.07;4.22;;;5.40;99.90;;;;;;4999442;28;20121;-81
2021/11/22 09:41:51;;;;;;;7.47;3.17;;;5.20;99.90;;;;;;5015816;28;20124;-81
2021/11/22 09:44:20;;;;;;;7.50;3.58;;;5.40;99.90;;;;;;4998970;28;20045;-81
2021/11/22 09:46:47;;;;;;;7.03;3.33;;;5.30;99.90;;;;;;5015404;28;20052;-81
2021/11/22 09:49:13;;;;;;;9.13;2.80;;;5.40;99.90;;;;;;4999276;28;20034;-81
2021/11/22 09:51:39;;;;;;;6.85;3.13;;;6.00;99.90;;;;;;5015108;28;20116;-81
2021/11/22 09:54:05;;;;;;;8.45;2.70;;;5.40;99.90;;;;;;5031815;28;20455;-81
2021/11/22 09:56:34;;;;;;;4.22;2.70;;;5.50;99.90;;;;;;5031615;28;20037;-81
2021/11/22 09:59:01;;;;;;;6.15;2.72;;;5.50;99.90;;;;;;5031787;28;20052;-80
2021/11/22 10:01:32;;;;;;;6.70;2.15;;;5.60;99.90;;;;;;4982570;28;20048;-80
2021/11/22 10:04:07;;;;;;;8.77;2.95;;;5.60;99.90;;;;;;5015173;28;20041;-80
2021/11/22 10:06:46;;;;;;;8.93;2.58;;;5.70;99.90;;;;;;4998882;28;20041;-80
2021/11/22 10:09:30;;;;;;;9.82;2.03;;;5.70;99.90;;;;;;5015199;28;20041;-80
2021/11/22 10:11:57;;;;;;;8.27;2.10;;;6.60;99.90;;;;;;5031627;28;20041;-80
2021/11/22 10:14:27;;;;;;;6.88;2.10;;;6.00;99.90;;;;;;5014835;28;20045;-80
2021/11/22 10:16:53;;;;;;;7.15;2.05;;;6.00;99.90;;;;;;4982456;28;20091;-80
2021/11/22 10:19:20;;;;;;;8.10;2.40;;;6.10;99.90;;;;;;5015260;28;20037;-80
2021/11/22 10:21:49;;;;;;;5.32;2.28;;;6.40;99.90;;;;;;4998855;28;20118;-80
2021/11/22 10:24:15;;;;;;;6.30;2.13;;;6.40;99.90;;;;;;5031147;28;20456;-80
2021/11/22 10:26:47;;;;;;;6.55;2.28;;;6.30;99.90;;;;;;5014698;28;20048;-80
2021/11/22 10:29:27;;;;;;;8.45;2.30;;;6.50;99.90;;;;;;5014058;28;20535;-80
2021/11/22 10:31:58;;;;;;;7.32;2.13;;;6.50;99.90;;;;;;4998082;28;20069;-80
2021/11/22 10:34:25;;;;;;;4.78;2.45;;;6.60;99.90;;;;;;4998374;28;20033;-80
2021/11/22 10:36:59;;;;;;;8.27;2.10;;;6.60;99.90;;;;;;4998683;28;20073;-80
2021/11/22 10:39:27;;;;;;;8.13;2.22;;;6.80;99.90;;;;;;4997962;28;20180;-80
2021/11/22 10:41:53;;;;;;;7.15;1.63;;;6.70;99.90;;;;;;4998381;28;20124;-80
2021/11/22 10:44:19;;;;;;;5.80;1.50;;;7.00;99.90;;;;;;4998222;28;20120;-80
2021/11/22 10:46:52;;;;;;;7.40;1.63;;;6.80;99.90;;;;;;5014435;28;20199;-80
2021/11/22 10:49:28;;;;;;;7.65;1.92;;;6.90;99.90;;;;;;5014788;28;20053;-80
2021/11/22 10:52:10;;;;;;;4.63;1.77;;;6.90;99.90;;;;;;5014619;28;20155;-80
2021/11/22 10:54:50;;;;;;;11.30;2.25;;;6.90;99.90;;;;;;5014603;28;20483;-80
2021/11/22 10:57:16;;;;;;;8.75;1.85;;;7.30;99.90;;;;;;5014293;28;20049;-80
2021/11/22 10:59:42;;;;;;;5.90;1.88;;;7.20;99.90;;;;;;4968668;28;20044;-80
2021/11/22 11:02:08;;;;;;;9.63;1.70;;;7.00;99.90;;;;;;4995084;28;20394;-80
2021/11/22 11:04:38;;;;;;;5.32;1.63;;;7.10;99.90;;;;;;5008596;28;20491;-80
2021/11/22 11:07:05;;;;;;;6.25;1.85;;;7.10;99.90;;;;;;5014412;28;20371;-80
2021/11/22 11:09:39;;;;;;;7.55;1.60;;;7.20;99.90;;;;;;5014474;28;20040;-80
2021/11/22 11:12:17;;;;;;;9.30;1.65;;;7.20;99.90;;;;;;4998112;28;20084;-80
2021/11/22 11:14:46;;;;;;;3.55;1.30;;;7.20;99.90;;;;;;5014172;28;20045;-79
2021/11/22 11:17:28;;;;;;;5.90;1.70;;;7.30;99.90;;;;;;5014572;28;20064;-80
2021/11/22 11:19:56;;;;;;;5.50;2.10;;;7.30;99.90;;;;;;5014523;28;20041;-80
2021/11/22 11:22:23;;;;;;;7.70;2.10;;;7.30;99.90;;;;;;5014085;28;20052;-80
2021/11/22 11:24:49;;;;;;;6.90;2.00;;;7.90;99.90;;;;;;5013783;28;20057;-80
2021/11/22 11:27:16;;;;;;;5.75;2.55;;;7.30;99.90;;;;;;5030435;28;20075;-80
2021/11/22 11:29:43;;;;;;;7.38;2.17;;;7.40;99.90;;;;;;5014437;28;20041;-80
2021/11/22 11:32:09;;;;;;;7.00;2.20;;;7.40;99.90;;;;;;5014106;28;20042;-80
2021/11/22 11:34:42;;;;;;;4.82;1.88;;;7.40;99.90;;;;;;5013705;28;20045;-80
2021/11/22 11:37:40;;;;;;;9.20;1.95;;;7.40;99.90;;;;;;5014259;28;20577;-80
2021/11/22 11:40:40;;;;;;;6.95;2.35;;;8.10;99.90;;;;;;4970144;28;20041;-80
2021/11/22 11:43:28;;;;;;;7.47;1.90;;;7.40;99.90;;;;;;5013197;28;20046;-80
2021/11/22 11:45:54;;;;;;;6.50;2.15;;;7.60;99.90;;;;;;5014142;28;20053;-80
2021/11/22 11:48:43;;;;;;;28.38;12.80;;;7.50;99.90;;;;;;5034030;28;20401;-80
2021/11/22 11:51:12;;;;;;;22.75;10.43;;;8.20;99.90;;;;;;5034250;28;20049;-80
2021/11/22 11:54:00;;;;;;;24.50;9.75;;;7.50;99.90;;;;;;5017523;28;20507;-80
2021/11/22 11:56:33;;;;;;;7.47;2.90;;;7.60;99.90;;;;;;5017203;28;20041;-80
2021/11/22 11:59:20;;;;;;;7.55;2.28;;;7.50;99.90;;;;;;5017628;28;20041;-80
2021/11/22 12:02:03;;;;;;;12.35;4.00;;;7.60;99.90;;;;;;5001055;28;20127;-80
2021/11/22 12:04:48;;;;;;;15.85;5.82;;;7.60;99.90;;;;;;5001314;28;20381;-80
2021/11/22 12:07:45;;;;;;;6.03;2.35;;;7.70;99.90;;;;;;5005622;28;20387;-80
2021/11/22 12:10:14;;;;;;;11.27;2.20;;;7.60;99.90;;;;;;4996818;28;20125;-80
2021/11/22 12:12:49;;;;;;;6.45;1.67;;;7.60;99.90;;;;;;5004745;28;20521;-80
2021/11/22 12:15:30;;;;;;;7.25;1.45;;;7.70;99.90;;;;;;4997461;28;20041;-80
2021/11/22 12:18:09;;;;;;;8.32;1.80;;;7.70;99.90;;;;;;5025583;28;20045;-80
2021/11/22 12:20:43;;;;;;;8.07;1.63;;;7.70;99.90;;;;;;5033926;28;20497;-80
2021/11/22 12:23:15;;;;;;;9.85;1.95;;;7.80;99.90;;;;;;5000513;28;20398;-80
2021/11/22 12:25:51;;;;;;;6.18;1.95;;;7.80;99.90;;;;;;5016874;28;20056;-80
2021/11/22 12:28:20;;;;;;;6.90;1.77;;;7.80;99.90;;;;;;5000629;28;20413;-79
2021/11/22 12:31:06;;;;;;;9.65;1.42;;;8.30;99.90;;;;;;5033813;28;20371;-79
2021/11/22 12:33:39;;;;;;;;;;;7.80;99.90;;;;;;5017307;28;20122;-79
2021/11/22 12:36:10;;;;;;;7.78;1.70;;;7.80;99.90;;;;;;5000775;28;20364;-80
2021/11/22 12:38:46;;;;;;;3.85;1.75;;;7.90;99.90;;;;;;5016836;28;20064;-80
2021/11/22 12:41:29;;;;;;;8.90;1.10;;;7.90;99.90;;;;;;5000694;28;20103;-80
2021/11/22 12:43:57;;;;;;;5.68;1.05;;;8.00;99.90;;;;;;5017058;28;20049;-80
2021/11/22 12:46:39;;;;;;;4.63;1.30;;;8.00;99.90;;;;;;5032807;28;20033;-80
2021/11/22 12:49:29;;;;;;;13.35;2.53;;;8.00;99.90;;;;;;5016625;28;20033;-80
2021/11/22 12:52:10;;;;;;;5.22;1.60;;;8.00;99.90;;;;;;5004546;28;20091;-80
2021/11/22 12:55:15;;;;;;;13.43;2.17;;;8.10;99.90;;;;;;4999998;28;20386;-80
2021/11/22 12:57:43;;;;;;;8.55;1.77;;;8.50;99.90;;;;;;5005149;28;20064;-80
2021/11/22 13:00:20;;;;;;;8.32;1.27;;;8.10;99.90;;;;;;4999794;28;20064;-80
2021/11/22 13:02:46;;;;;;;40.92;3.80;;;8.10;99.90;;;;;;5016723;28;20063;-80
2021/11/22 13:05:43;;;;;;;29.02;4.43;;;8.10;99.90;;;;;;4999719;28;20037;-80